Time;durP1;ratioP1;P1;durP2;ratioP2;P2;SDS_P1;SDS_P2;PMS_P1;PMS_P2;Temp;Humidity;BMP_temperature;BMP_pressure;BME280_temperature;BME280_humidity;BME280_pressure;Samples;Min_cycle;Max_cycle;Signal;HPM_P1;HPM_P2
2023/12/17 05:01:56;;;;;;;1.20;1.10;;;6.60;97.30;;;;;;5412693;23;20499;-89
2023/12/17 05:04:21;;;;;;;2.37;1.37;;;6.60;97.30;;;;;;4998075;28;20792;-86
2023/12/17 05:06:47;;;;;;;1.60;1.50;;;6.60;97.30;;;;;;5001130;28;20184;-89
2023/12/17 05:09:13;;;;;;;1.53;1.43;;;6.60;97.30;;;;;;4988166;28;20233;-88
2023/12/17 05:11:38;;;;;;;3.23;1.20;;;6.60;97.30;;;;;;4983036;28;20484;-89
2023/12/17 05:14:04;;;;;;;1.57;1.47;;;6.70;97.30;;;;;;4992630;28;20235;-86
2023/12/17 05:16:29;;;;;;;19.53;3.77;;;6.60;97.30;;;;;;4976443;28;20192;-87
2023/12/17 05:18:55;;;;;;;2.73;1.47;;;6.70;97.30;;;;;;4976703;28;20209;-86
2023/12/17 05:21:21;;;;;;;1.00;0.90;;;6.70;97.30;;;;;;4975051;28;20767;-86
2023/12/17 05:23:46;;;;;;;1.37;1.27;;;6.70;97.30;;;;;;4969834;28;20507;-86
2023/12/17 05:26:12;;;;;;;3.70;1.63;;;6.70;97.30;;;;;;4976627;28;20313;-86
2023/12/17 05:28:40;;;;;;;1.30;1.20;;;6.70;97.30;;;;;;4976007;28;20178;-88
2023/12/17 05:31:06;;;;;;;1.20;1.10;;;6.60;97.30;;;;;;4976598;28;20221;-89
2023/12/17 05:33:32;;;;;;;1.10;1.00;;;6.60;97.30;;;;;;4975324;28;20437;-88
2023/12/17 05:35:57;;;;;;;1.00;0.90;;;6.60;97.30;;;;;;4993737;28;20801;-88
2023/12/17 05:38:27;;;;;;;1.00;1.00;;;6.60;97.30;;;;;;4975301;28;20436;-87
2023/12/17 05:40:53;;;;;;;1.50;1.40;;;6.50;97.30;;;;;;4998269;28;20226;-88
2023/12/17 05:43:19;;;;;;;1.63;1.53;;;6.50;97.30;;;;;;4978615;28;20431;-88
2023/12/17 05:45:44;;;;;;;1.63;1.53;;;6.60;97.30;;;;;;4974830;28;20433;-87
2023/12/17 05:48:10;;;;;;;1.53;1.47;;;6.50;97.30;;;;;;4975094;28;20316;-88
2023/12/17 05:50:35;;;;;;;1.23;1.13;;;6.50;97.30;;;;;;4974970;28;20595;-88
2023/12/17 05:53:01;;;;;;;1.63;1.53;;;6.50;97.30;;;;;;4982946;28;20189;-87
2023/12/17 05:55:26;;;;;;;1.50;1.10;;;6.50;97.30;;;;;;4976828;28;20678;-88
2023/12/17 05:57:52;;;;;;;3.90;2.40;;;6.50;97.30;;;;;;4976213;28;20193;-87
2023/12/17 06:00:18;;;;;;;1.00;0.90;;;6.50;97.30;;;;;;4975687;28;20217;-87
2023/12/17 06:02:43;;;;;;;1.07;0.97;;;6.50;97.30;;;;;;4974560;28;20688;-88
2023/12/17 06:05:09;;;;;;;1.13;1.03;;;6.50;97.30;;;;;;4974795;28;20193;-88
2023/12/17 06:07:34;;;;;;;1.20;1.13;;;6.50;97.30;;;;;;4975479;28;20220;-87
2023/12/17 06:10:00;;;;;;;2.70;1.07;;;6.50;97.30;;;;;;4975503;28;20264;-89
2023/12/17 06:12:25;;;;;;;4.97;2.43;;;6.50;97.30;;;;;;4974351;28;20202;-88
2023/12/17 06:14:51;;;;;;;1.40;1.30;;;6.50;97.30;;;;;;4974760;28;20280;-88
2023/12/17 06:17:16;;;;;;;1.10;1.00;;;6.50;97.30;;;;;;4975977;28;20317;-88
2023/12/17 06:19:43;;;;;;;1.67;1.33;;;6.50;97.30;;;;;;4967106;28;20682;-88
2023/12/17 06:22:11;;;;;;;1.53;1.43;;;6.50;97.30;;;;;;4974338;28;20680;-87
2023/12/17 06:24:37;;;;;;;3.00;2.07;;;6.50;97.30;;;;;;4974285;28;20523;-88
2023/12/17 06:27:03;;;;;;;1.10;1.00;;;6.50;97.30;;;;;;4992850;28;20563;-88
2023/12/17 06:29:28;;;;;;;1.70;1.60;;;6.50;97.30;;;;;;4982339;28;20201;-88
2023/12/17 06:31:54;;;;;;;1.73;1.63;;;6.50;97.30;;;;;;4992084;28;20429;-88
2023/12/17 06:34:19;;;;;;;4.10;2.70;;;6.50;97.30;;;;;;4973352;28;20485;-89
2023/12/17 06:36:45;;;;;;;3.73;1.77;;;6.50;97.30;;;;;;4975317;28;20700;-88
2023/12/17 06:39:10;;;;;;;1.50;1.40;;;6.50;97.30;;;;;;4974396;28;20683;-86
2023/12/17 06:41:43;;;;;;;1.63;1.57;;;6.50;97.30;;;;;;4982821;28;20339;-87
2023/12/17 06:44:08;;;;;;;1.33;1.23;;;6.50;97.30;;;;;;4974657;28;20285;-88
2023/12/17 06:46:34;;;;;;;1.10;1.00;;;6.50;97.30;;;;;;4974343;28;20464;-88
2023/12/17 06:48:59;;;;;;;2.73;2.53;;;6.50;97.30;;;;;;4974395;28;20217;-87
2023/12/17 06:51:25;;;;;;;1.67;1.57;;;6.50;97.30;;;;;;4974582;28;20228;-86
2023/12/17 06:53:50;;;;;;;0.90;0.80;;;6.50;97.30;;;;;;4992302;28;20228;-88
2023/12/17 06:56:16;;;;;;;1.40;1.30;;;6.50;97.30;;;;;;4974411;28;20186;-88
2023/12/17 06:58:42;;;;;;;1.30;1.20;;;6.50;97.30;;;;;;4974134;28;20192;-87
2023/12/17 07:01:07;;;;;;;1.40;1.30;;;6.50;97.30;;;;;;4973854;28;20225;-88
2023/12/17 07:03:33;;;;;;;1.20;1.07;;;6.50;97.30;;;;;;4984194;28;20254;-88
2023/12/17 07:05:58;;;;;;;1.90;1.80;;;6.50;97.30;;;;;;4974980;28;20582;-87
2023/12/17 07:08:25;;;;;;;2.70;2.30;;;6.50;97.30;;;;;;4976434;28;20285;-86
2023/12/17 07:10:50;;;;;;;3.73;2.70;;;6.50;97.30;;;;;;4978035;28;20742;-88
2023/12/17 07:13:16;;;;;;;1.27;1.17;;;6.40;97.30;;;;;;4978161;28;20421;-89
2023/12/17 07:15:43;;;;;;;1.23;1.13;;;6.40;97.30;;;;;;4977807;28;20185;-88
2023/12/17 07:18:09;;;;;;;2.77;2.57;;;6.40;97.30;;;;;;4977689;28;20193;-88
2023/12/17 07:20:34;;;;;;;1.70;1.60;;;6.40;97.30;;;;;;4995000;28;20504;-87
2023/12/17 07:23:00;;;;;;;2.40;2.30;;;6.40;97.30;;;;;;4977739;28;20194;-87
2023/12/17 07:25:26;;;;;;;1.57;1.37;;;6.40;97.30;;;;;;4977376;28;20185;-87
2023/12/17 07:27:53;;;;;;;1.20;1.10;;;6.40;97.30;;;;;;4977631;28;20682;-88
2023/12/17 07:30:18;;;;;;;3.13;3.00;;;6.40;97.30;;;;;;4977545;28;20484;-88
2023/12/17 07:32:44;;;;;;;1.73;1.67;;;6.40;97.30;;;;;;4977283;28;20421;-88
2023/12/17 07:35:09;;;;;;;1.07;0.97;;;6.40;97.30;;;;;;4977342;28;20213;-87
2023/12/17 07:37:35;;;;;;;1.10;1.00;;;6.40;97.30;;;;;;4977198;28;20213;-88
2023/12/17 07:40:01;;;;;;;2.07;1.93;;;6.40;97.30;;;;;;4995213;28;20701;-89
2023/12/17 07:42:27;;;;;;;1.70;1.60;;;6.40;97.30;;;;;;5002871;28;20308;-88
2023/12/17 07:44:52;;;;;;;7.70;2.10;;;6.40;97.30;;;;;;4977262;28;20194;-89
2023/12/17 07:47:18;;;;;;;1.30;1.20;;;6.40;97.30;;;;;;4994585;28;20300;-88
2023/12/17 07:49:43;;;;;;;1.43;1.00;;;6.50;97.30;;;;;;4976495;28;20480;-87
2023/12/17 07:52:09;;;;;;;4.20;1.67;;;6.50;97.30;;;;;;4976804;28;20213;-89
2023/12/17 07:54:34;;;;;;;1.10;1.00;;;6.50;97.30;;;;;;4993308;28;20660;-87
2023/12/17 07:57:00;;;;;;;9.10;5.97;;;6.50;97.30;;;;;;4982445;28;20268;-88
2023/12/17 07:59:25;;;;;;;1.20;1.10;;;6.50;97.30;;;;;;4997533;28;20211;-88
2023/12/17 08:01:51;;;;;;;2.10;1.80;;;6.60;97.30;;;;;;4990145;28;20225;-89
2023/12/17 08:04:18;;;;;;;2.87;2.47;;;6.60;97.30;;;;;;5001463;28;20189;-88
2023/12/17 08:06:43;;;;;;;1.57;1.47;;;6.70;97.30;;;;;;5018093;28;20416;-89
2023/12/17 08:09:09;;;;;;;2.83;1.10;;;6.70;97.30;;;;;;4991754;28;20512;-88
2023/12/17 08:11:34;;;;;;;1.50;1.40;;;6.70;97.30;;;;;;4985065;28;20701;-88
2023/12/17 08:14:00;;;;;;;1.53;1.43;;;6.70;97.30;;;;;;5013728;28;20173;-88
2023/12/17 08:16:26;;;;;;;3.47;2.70;;;6.80;97.30;;;;;;4986388;28;20197;-86
2023/12/17 08:18:51;;;;;;;2.17;2.00;;;6.80;97.30;;;;;;4994085;28;20561;-88
2023/12/17 08:21:17;;;;;;;1.73;1.20;;;6.80;97.30;;;;;;4994277;28;20437;-88
2023/12/17 08:23:42;;;;;;;4.00;1.70;;;6.80;97.30;;;;;;4989600;28;20664;-88
2023/12/17 08:26:10;;;;;;;1.93;1.83;;;6.80;97.30;;;;;;4991684;28;20185;-87
2023/12/17 08:28:35;;;;;;;3.60;3.33;;;6.80;97.30;;;;;;5001613;28;20187;-89
2023/12/17 08:31:01;;;;;;;2.30;1.97;;;6.80;97.30;;;;;;5016355;28;20566;-89
2023/12/17 08:33:26;;;;;;;1.60;1.40;;;6.80;97.30;;;;;;5013921;28;20195;-88
2023/12/17 08:35:52;;;;;;;1.37;1.27;;;6.90;97.30;;;;;;4993501;28;20185;-89
2023/12/17 08:38:17;;;;;;;3.33;1.93;;;6.90;97.30;;;;;;4986534;28;20209;-88
2023/12/17 08:40:46;;;;;;;3.17;2.40;;;6.90;97.30;;;;;;4980195;28;20217;-86
2023/12/17 08:43:12;;;;;;;2.20;2.00;;;6.90;97.30;;;;;;4977004;28;20212;-89
2023/12/17 08:45:37;;;;;;;1.30;1.20;;;6.90;97.30;;;;;;4984975;28;20452;-88
2023/12/17 08:48:05;;;;;;;1.57;1.47;;;6.90;97.30;;;;;;4981913;28;20425;-88
2023/12/17 08:50:30;;;;;;;1.93;1.83;;;6.90;97.30;;;;;;4976196;28;20591;-89
2023/12/17 08:52:56;;;;;;;1.40;1.40;;;7.00;97.30;;;;;;4976059;28;20425;-88
2023/12/17 08:55:21;;;;;;;2.60;1.40;;;7.00;97.30;;;;;;4976105;28;20193;-87
2023/12/17 08:57:47;;;;;;;2.70;2.50;;;7.00;97.30;;;;;;4975932;28;20186;-89
2023/12/17 09:00:13;;;;;;;2.27;1.80;;;7.00;97.30;;;;;;4982824;28;20617;-88
2023/12/17 09:02:39;;;;;;;2.43;2.23;;;7.00;97.30;;;;;;4984298;28;20335;-88
2023/12/17 09:05:06;;;;;;;1.43;1.33;;;7.00;97.30;;;;;;4981141;28;20520;-89
2023/12/17 09:07:31;;;;;;;1.50;1.40;;;7.00;97.30;;;;;;4976358;28;20425;-88
2023/12/17 09:09:57;;;;;;;1.67;1.60;;;7.00;97.30;;;;;;4981109;28;20471;-89
2023/12/17 09:12:22;;;;;;;4.40;2.70;;;7.00;97.30;;;;;;4983393;28;20703;-87
2023/12/17 09:14:49;;;;;;;3.63;2.07;;;7.00;97.30;;;;;;4977258;28;20201;-89
2023/12/17 09:17:14;;;;;;;1.20;1.10;;;7.00;97.30;;;;;;4979930;28;20182;-88
2023/12/17 09:19:40;;;;;;;2.20;2.00;;;7.00;97.30;;;;;;4983033;28;20463;-88
2023/12/17 09:22:06;;;;;;;1.77;1.67;;;7.00;97.30;;;;;;4982315;28;20444;-88
2023/12/17 09:24:31;;;;;;;2.03;1.90;;;7.00;97.30;;;;;;4983154;28;20217;-88
2023/12/17 09:26:57;;;;;;;3.60;1.43;;;7.00;97.30;;;;;;4985083;28;20197;-89
2023/12/17 09:29:23;;;;;;;2.37;2.23;;;7.00;97.30;;;;;;4983681;28;20201;-88
2023/12/17 09:31:49;;;;;;;2.47;2.30;;;7.00;97.30;;;;;;4996471;28;20449;-88
2023/12/17 09:34:15;;;;;;;1.27;1.20;;;7.00;97.30;;;;;;4982007;28;20532;-88
2023/12/17 09:36:41;;;;;;;1.20;1.10;;;7.00;97.30;;;;;;4992597;28;20540;-88
2023/12/17 09:39:09;;;;;;;2.47;2.27;;;7.00;97.30;;;;;;4975241;28;20178;-89
2023/12/17 09:41:35;;;;;;;4.17;3.77;;;7.00;97.30;;;;;;4999661;28;20440;-88
2023/12/17 09:44:00;;;;;;;2.17;2.00;;;7.00;97.30;;;;;;4975109;28;20599;-88
2023/12/17 09:46:27;;;;;;;1.70;1.67;;;7.00;97.30;;;;;;4974830;28;20558;-88
2023/12/17 09:48:52;;;;;;;1.97;1.37;;;7.00;97.30;;;;;;4984846;28;20181;-88
2023/12/17 09:51:20;;;;;;;1.30;1.23;;;7.10;97.30;;;;;;4996514;28;21102;-88
2023/12/17 09:53:46;;;;;;;1.53;1.43;;;7.10;97.30;;;;;;4981237;28;20289;-88
2023/12/17 09:56:12;;;;;;;7.13;1.93;;;7.20;97.30;;;;;;4980519;28;20515;-88
2023/12/17 09:58:38;;;;;;;1.30;1.17;;;7.20;97.30;;;;;;4993648;28;20583;-88
2023/12/17 10:01:04;;;;;;;2.90;2.03;;;7.30;97.30;;;;;;4992335;28;20556;-89
2023/12/17 10:03:30;;;;;;;1.60;1.50;;;7.30;97.30;;;;;;4999094;28;20216;-88
2023/12/17 10:05:55;;;;;;;1.83;1.73;;;7.30;97.30;;;;;;4978044;28;20232;-87
2023/12/17 10:08:22;;;;;;;1.33;1.23;;;7.40;97.30;;;;;;4978089;28;20457;-87
2023/12/17 10:10:48;;;;;;;9.50;2.03;;;7.50;97.30;;;;;;4986809;28;20244;-88
2023/12/17 10:13:19;;;;;;;4.43;2.30;;;7.50;97.30;;;;;;4974615;28;20479;-89
2023/12/17 10:15:50;;;;;;;1.50;1.40;;;7.50;97.30;;;;;;4981170;28;20472;-88
2023/12/17 10:18:16;;;;;;;2.67;2.27;;;7.50;97.30;;;;;;4974860;28;20435;-88
2023/12/17 10:20:43;;;;;;;1.30;1.20;;;7.50;97.30;;;;;;4983452;28;20546;-88
2023/12/17 10:23:09;;;;;;;1.90;1.73;;;7.60;97.30;;;;;;5002113;28;20423;-87
2023/12/17 10:25:35;;;;;;;1.80;1.70;;;7.60;97.30;;;;;;4982157;28;20436;-89
2023/12/17 10:28:00;;;;;;;1.20;1.10;;;7.70;97.30;;;;;;4991735;28;20364;-89
2023/12/17 10:30:31;;;;;;;1.30;1.20;;;7.70;97.30;;;;;;4998736;28;20216;-88
2023/12/17 10:32:58;;;;;;;1.47;1.37;;;7.80;97.30;;;;;;5004825;28;20449;-86
2023/12/17 10:35:25;;;;;;;5.33;1.63;;;7.90;97.30;;;;;;4981258;28;20428;-88
2023/12/17 10:38:12;;;;;;;1.10;1.00;;;7.90;97.30;;;;;;4974520;28;20492;-88
2023/12/17 10:40:40;;;;;;;2.60;1.93;;;8.00;97.30;;;;;;4980811;28;20435;-88
2023/12/17 10:43:06;;;;;;;3.17;1.53;;;8.00;97.30;;;;;;4976611;28;20443;-88
2023/12/17 10:45:34;;;;;;;2.73;2.27;;;8.10;97.30;;;;;;4978300;28;20441;-88
2023/12/17 10:48:00;;;;;;;3.53;3.37;;;8.00;97.30;;;;;;4978448;28;20524;-89
2023/12/17 10:50:26;;;;;;;1.40;1.33;;;8.00;97.30;;;;;;4977984;28;20997;-88
2023/12/17 10:52:53;;;;;;;1.63;1.63;;;8.00;97.30;;;;;;4978003;28;20438;-88
2023/12/17 10:55:19;;;;;;;2.53;2.33;;;8.00;97.30;;;;;;4990133;28;20424;-89
2023/12/17 10:57:57;;;;;;;4.20;1.30;;;8.00;97.30;;;;;;4978246;28;20428;-88
2023/12/17 11:00:27;;;;;;;4.67;3.30;;;8.10;97.30;;;;;;4995285;28;20938;-88
2023/12/17 11:02:57;;;;;;;3.97;1.80;;;8.20;97.30;;;;;;4977431;28;20986;-89
2023/12/17 11:05:22;;;;;;;1.17;1.10;;;8.30;97.30;;;;;;4983975;28;20490;-88
2023/12/17 11:07:48;;;;;;;1.20;1.10;;;8.40;97.30;;;;;;4978156;28;20429;-88
2023/12/17 11:10:15;;;;;;;3.13;1.83;;;8.50;97.30;;;;;;4989520;28;20217;-88
2023/12/17 11:12:41;;;;;;;1.10;1.00;;;8.60;97.30;;;;;;4978546;28;20480;-89
2023/12/17 11:15:07;;;;;;;1.57;1.47;;;8.40;97.30;;;;;;5001584;28;20926;-87
2023/12/17 11:17:33;;;;;;;1.47;1.37;;;8.40;97.30;;;;;;4983721;28;20479;-87
2023/12/17 11:20:03;;;;;;;2.50;1.70;;;8.50;97.30;;;;;;4985567;28;20473;-88
2023/12/17 11:22:28;;;;;;;1.50;1.27;;;8.60;97.30;;;;;;4984611;28;20212;-89
2023/12/17 11:24:56;;;;;;;1.90;1.60;;;8.70;97.30;;;;;;4977645;28;20421;-88
2023/12/17 11:27:22;;;;;;;2.00;1.70;;;8.70;97.30;;;;;;4978040;28;20186;-87
2023/12/17 11:29:49;;;;;;;2.60;1.53;;;8.70;97.30;;;;;;4990031;28;20465;-88
2023/12/17 11:32:17;;;;;;;4.83;1.93;;;8.70;97.30;;;;;;4978080;28;20452;-89
2023/12/17 11:34:48;;;;;;;1.33;1.17;;;8.70;97.30;;;;;;4978505;28;20425;-88
2023/12/17 11:37:21;;;;;;;2.23;2.10;;;8.90;97.30;;;;;;4984208;28;20527;-90
2023/12/17 11:39:48;;;;;;;1.30;1.20;;;9.00;97.30;;;;;;4974937;28;20425;-88
2023/12/17 11:42:15;;;;;;;1.20;1.10;;;9.20;97.30;;;;;;4983774;28;20539;-89
2023/12/17 11:44:45;;;;;;;2.63;2.10;;;9.20;97.30;;;;;;4977426;28;20433;-88
2023/12/17 11:47:11;;;;;;;1.07;0.97;;;9.20;97.30;;;;;;4974708;28;20432;-89
2023/12/17 11:49:37;;;;;;;1.30;1.20;;;9.00;97.30;;;;;;4978104;28;20460;-88
2023/12/17 11:52:12;;;;;;;1.10;1.00;;;9.10;97.30;;;;;;4977564;28;20449;-90
2023/12/17 11:54:37;;;;;;;5.10;3.07;;;9.00;97.30;;;;;;4982981;28;20189;-88
2023/12/17 11:57:03;;;;;;;1.80;1.50;;;9.10;97.30;;;;;;4977289;28;20523;-89
2023/12/17 11:59:33;;;;;;;0.90;0.80;;;9.20;97.30;;;;;;4969848;28;20675;-88
2023/12/17 12:01:59;;;;;;;2.87;2.07;;;9.10;97.30;;;;;;4977215;28;20264;-89
2023/12/17 12:04:25;;;;;;;1.47;1.37;;;9.20;97.30;;;;;;4977413;28;20738;-87
2023/12/17 12:06:54;;;;;;;6.20;1.90;;;9.20;97.30;;;;;;4978041;28;20504;-88
2023/12/17 12:09:20;;;;;;;1.53;1.43;;;9.30;97.30;;;;;;4977281;28;20202;-88
2023/12/17 12:11:45;;;;;;;1.60;1.50;;;9.40;97.30;;;;;;4982691;28;20506;-86
2023/12/17 12:14:11;;;;;;;2.97;2.30;;;9.30;97.30;;;;;;4977305;28;20512;-89
2023/12/17 12:16:39;;;;;;;1.90;1.50;;;9.20;97.30;;;;;;5000696;28;20193;-88
2023/12/17 12:19:05;;;;;;;2.80;1.27;;;9.30;97.30;;;;;;4982791;28;20215;-88
2023/12/17 12:21:30;;;;;;;1.63;1.53;;;9.40;97.30;;;;;;4977120;28;20510;-89
2023/12/17 12:23:57;;;;;;;9.27;3.30;;;9.70;97.30;;;;;;4977925;28;20213;-87
2023/12/17 12:26:24;;;;;;;2.30;2.10;;;9.60;97.30;;;;;;4983003;28;20191;-89
2023/12/17 12:29:06;;;;;;;1.50;1.20;;;9.60;97.30;;;;;;4982614;28;20472;-88
2023/12/17 12:31:32;;;;;;;1.77;1.67;;;9.60;97.30;;;;;;4979962;28;20445;-89
2023/12/17 12:33:59;;;;;;;5.40;3.63;;;9.70;97.30;;;;;;4977774;28;20425;-89
2023/12/17 12:36:26;;;;;;;1.30;1.20;;;9.60;97.30;;;;;;4982554;28;20428;-89
2023/12/17 12:39:00;;;;;;;1.23;1.20;;;9.60;97.30;;;;;;4978313;28;20939;-87
2023/12/17 12:41:25;;;;;;;2.50;2.30;;;9.60;97.30;;;;;;4979595;28;20491;-89
2023/12/17 12:43:53;;;;;;;1.20;1.10;;;9.50;97.30;;;;;;4977269;28;20413;-89
2023/12/17 12:46:18;;;;;;;1.93;1.80;;;9.40;97.30;;;;;;4977305;28;20182;-88
2023/12/17 12:48:44;;;;;;;1.43;1.33;;;9.30;97.30;;;;;;4981956;28;20421;-87
2023/12/17 12:51:11;;;;;;;1.33;1.23;;;9.30;97.30;;;;;;4976631;28;20206;-89
2023/12/17 12:53:36;;;;;;;1.97;1.40;;;9.40;97.30;;;;;;4982127;28;20186;-88
2023/12/17 12:56:02;;;;;;;1.07;1.03;;;9.60;97.30;;;;;;4977315;28;20436;-88
2023/12/17 12:58:30;;;;;;;1.63;1.60;;;9.50;97.30;;;;;;4994150;28;20324;-87
2023/12/17 13:00:55;;;;;;;2.07;1.93;;;9.40;97.30;;;;;;4980128;28;20228;-87
2023/12/17 13:03:21;;;;;;;1.87;1.40;;;9.40;97.30;;;;;;4986121;28;20424;-88
2023/12/17 13:05:47;;;;;;;1.50;1.40;;;9.60;97.30;;;;;;4983333;28;20671;-87
2023/12/17 13:08:13;;;;;;;1.17;1.07;;;9.80;97.30;;;;;;4976048;28;20276;-89
2023/12/17 13:10:38;;;;;;;3.77;3.23;;;9.90;97.30;;;;;;4976670;28;20316;-88
2023/12/17 13:13:04;;;;;;;2.90;1.40;;;10.00;97.30;;;;;;4976854;28;20516;-88
2023/12/17 13:15:29;;;;;;;2.40;1.77;;;10.00;97.30;;;;;;4986063;28;20188;-89
2023/12/17 13:17:55;;;;;;;2.13;1.63;;;9.80;97.30;;;;;;4976038;28;20182;-89
2023/12/17 13:20:20;;;;;;;1.37;1.33;;;9.80;97.30;;;;;;4977522;28;20189;-89
2023/12/17 13:22:46;;;;;;;1.17;1.07;;;9.70;97.30;;;;;;4981202;28;20193;-91
2023/12/17 13:25:11;;;;;;;1.27;1.17;;;9.60;97.30;;;;;;4976223;28;20190;-88
2023/12/17 13:27:39;;;;;;;1.17;0.87;;;9.60;97.30;;;;;;4976427;28;20597;-87
2023/12/17 13:30:05;;;;;;;2.03;1.90;;;9.70;97.30;;;;;;4983992;28;20252;-89
2023/12/17 13:32:31;;;;;;;1.30;1.20;;;9.60;97.30;;;;;;4995629;28;20433;-89
2023/12/17 13:34:57;;;;;;;2.70;1.27;;;9.60;97.30;;;;;;4976675;28;20425;-88
2023/12/17 13:37:23;;;;;;;2.27;1.20;;;9.50;97.30;;;;;;4976387;28;20213;-88
2023/12/17 13:39:48;;;;;;;1.77;1.70;;;9.50;97.30;;;;;;4980930;28;20951;-87
2023/12/17 13:42:14;;;;;;;2.97;2.77;;;9.60;97.30;;;;;;4993754;28;20558;-88
2023/12/17 13:44:39;;;;;;;1.50;1.40;;;9.50;97.30;;;;;;4994544;28;20186;-89
2023/12/17 13:47:05;;;;;;;1.17;1.10;;;9.50;97.30;;;;;;4976203;28;20186;-88
2023/12/17 13:49:38;;;;;;;1.70;1.60;;;9.50;97.30;;;;;;4976458;28;20218;-89
2023/12/17 13:52:06;;;;;;;2.57;1.30;;;9.40;97.30;;;;;;4993488;28;20216;-88
2023/12/17 13:54:32;;;;;;;1.30;1.20;;;9.30;97.30;;;;;;4976179;28;20507;-89
2023/12/17 13:56:57;;;;;;;2.30;1.57;;;9.30;97.30;;;;;;4976839;28;20861;-88
2023/12/17 13:59:23;;;;;;;2.47;1.60;;;9.20;97.30;;;;;;4976292;28;20428;-88
2023/12/17 14:01:48;;;;;;;2.33;1.97;;;9.20;97.30;;;;;;4975970;28;20237;-89
2023/12/17 14:04:14;;;;;;;1.53;1.43;;;9.20;97.30;;;;;;4980141;28;20194;-89
2023/12/17 14:06:39;;;;;;;4.53;1.90;;;9.20;97.30;;;;;;4988783;28;20181;-89
2023/12/17 14:09:05;;;;;;;3.57;1.90;;;9.10;97.30;;;;;;4978139;28;20192;-87
2023/12/17 14:11:30;;;;;;;1.47;1.37;;;9.00;97.30;;;;;;4978181;28;20328;-89
2023/12/17 14:13:56;;;;;;;1.47;1.07;;;8.90;97.30;;;;;;4976449;28;20189;-88
2023/12/17 14:16:22;;;;;;;2.00;1.47;;;8.80;97.30;;;;;;4976638;28;20268;-87
2023/12/17 14:18:48;;;;;;;3.83;2.50;;;8.70;97.30;;;;;;4983807;28;20516;-89
2023/12/17 14:21:14;;;;;;;3.37;2.40;;;8.60;97.30;;;;;;4984812;28;20205;-87
2023/12/17 14:23:42;;;;;;;2.40;1.87;;;8.60;97.30;;;;;;4982262;28;20996;-89
2023/12/17 14:26:07;;;;;;;1.20;1.10;;;8.60;97.30;;;;;;5006293;28;20190;-89
2023/12/17 14:28:34;;;;;;;1.27;1.17;;;8.60;97.30;;;;;;4979336;28;20439;-88
2023/12/17 14:31:00;;;;;;;2.50;1.63;;;8.40;97.30;;;;;;4983629;28;20210;-89
2023/12/17 14:33:26;;;;;;;2.47;2.20;;;8.30;97.30;;;;;;4984033;28;20416;-89
2023/12/17 14:35:51;;;;;;;2.07;1.93;;;8.20;97.30;;;;;;4979813;28;20425;-89
2023/12/17 14:38:17;;;;;;;1.40;1.30;;;8.10;97.30;;;;;;4987135;28;20192;-89
2023/12/17 14:40:43;;;;;;;1.43;1.40;;;8.10;97.30;;;;;;4984003;28;20201;-88
2023/12/17 14:43:08;;;;;;;2.77;2.03;;;8.00;97.30;;;;;;4979787;28;20433;-88
2023/12/17 14:45:33;;;;;;;3.93;3.73;;;8.00;97.30;;;;;;4983219;28;20203;-88
2023/12/17 14:47:59;;;;;;;1.53;1.43;;;7.90;97.30;;;;;;4979066;28;20615;-89
2023/12/17 14:50:26;;;;;;;1.90;1.63;;;7.90;97.30;;;;;;4996585;28;20317;-88
2023/12/17 14:52:52;;;;;;;1.30;1.20;;;7.80;97.30;;;;;;5000317;28;20174;-89
2023/12/17 14:55:17;;;;;;;2.20;1.40;;;7.80;97.30;;;;;;4982538;28;20478;-89
2023/12/17 14:57:43;;;;;;;1.00;0.90;;;7.70;97.30;;;;;;4978628;28;20192;-89
2023/12/17 15:00:08;;;;;;;1.40;1.30;;;7.70;97.30;;;;;;4978607;28;20223;-89
2023/12/17 15:02:34;;;;;;;1.40;1.30;;;7.60;97.30;;;;;;4978073;28;20241;-89
2023/12/17 15:05:01;;;;;;;4.40;1.97;;;7.60;97.30;;;;;;4979085;28;20652;-87
2023/12/17 15:07:26;;;;;;;3.43;1.10;;;7.60;97.30;;;;;;4978903;28;20182;-88
2023/12/17 15:10:04;;;;;;;1.20;1.10;;;7.50;97.30;;;;;;4978743;28;20468;-88
2023/12/17 15:12:30;;;;;;;1.87;1.50;;;7.50;97.30;;;;;;4976706;28;20259;-89
2023/12/17 15:14:55;;;;;;;1.10;1.00;;;7.50;97.30;;;;;;4999710;28;20508;-88
2023/12/17 15:17:21;;;;;;;2.23;2.03;;;7.40;97.30;;;;;;4974388;28;20482;-89
2023/12/17 15:19:47;;;;;;;2.07;1.47;;;7.40;97.30;;;;;;4982428;28;20201;-88
2023/12/17 15:22:13;;;;;;;2.00;1.50;;;7.40;97.30;;;;;;4995833;28;20201;-88
2023/12/17 15:24:39;;;;;;;1.20;1.13;;;7.40;97.30;;;;;;4978499;28;20512;-88
2023/12/17 15:27:04;;;;;;;5.03;1.67;;;7.30;97.30;;;;;;4978422;28;20513;-87
2023/12/17 15:29:30;;;;;;;1.33;1.23;;;7.30;97.30;;;;;;4981328;28;20260;-88
2023/12/17 15:31:55;;;;;;;1.20;1.10;;;7.30;97.30;;;;;;4978158;28;20214;-87
2023/12/17 15:34:21;;;;;;;5.30;3.47;;;7.30;97.30;;;;;;4982142;28;20654;-88
2023/12/17 15:36:47;;;;;;;1.30;1.20;;;7.20;97.30;;;;;;4977555;28;20655;-88
2023/12/17 15:39:12;;;;;;;2.17;2.00;;;7.20;97.30;;;;;;4978017;28;20224;-87
2023/12/17 15:41:38;;;;;;;7.20;2.70;;;7.20;97.30;;;;;;4978100;28;20680;-88
2023/12/17 15:44:04;;;;;;;2.70;1.97;;;7.20;97.30;;;;;;4977729;28;20317;-89
2023/12/17 15:46:31;;;;;;;1.33;1.23;;;7.10;97.30;;;;;;4984908;28;20196;-89
2023/12/17 15:48:59;;;;;;;2.30;2.10;;;7.10;97.30;;;;;;4980432;28;20664;-88
2023/12/17 15:51:25;;;;;;;2.67;2.00;;;7.10;97.30;;;;;;4981122;28;20479;-89
2023/12/17 15:53:52;;;;;;;1.60;1.50;;;7.10;97.30;;;;;;4989937;28;20431;-88
2023/12/17 15:56:18;;;;;;;1.70;1.60;;;7.10;97.30;;;;;;4980711;28;20215;-88
2023/12/17 15:58:44;;;;;;;2.20;1.47;;;7.00;97.30;;;;;;4982826;28;20425;-88
2023/12/17 16:01:10;;;;;;;2.43;2.30;;;7.00;97.30;;;;;;4985793;28;20567;-88
2023/12/17 16:03:36;;;;;;;4.50;1.57;;;7.00;97.30;;;;;;4982607;28;20194;-89
2023/12/17 16:06:01;;;;;;;1.13;1.03;;;7.00;97.30;;;;;;4978086;28;20761;-89
2023/12/17 16:08:27;;;;;;;2.00;1.40;;;6.90;97.30;;;;;;4989171;28;20334;-88
2023/12/17 16:10:53;;;;;;;1.43;1.33;;;6.90;97.30;;;;;;4981683;28;20761;-88
2023/12/17 16:13:18;;;;;;;3.40;2.33;;;6.90;97.30;;;;;;4977891;28;20568;-87
2023/12/17 16:15:44;;;;;;;1.90;1.67;;;6.90;97.30;;;;;;4977671;28;20559;-89
2023/12/17 16:18:09;;;;;;;4.63;2.00;;;6.90;97.30;;;;;;4983551;28;20182;-89
2023/12/17 16:20:34;;;;;;;1.20;1.10;;;6.90;97.30;;;;;;4976871;28;20240;-89
2023/12/17 16:23:00;;;;;;;3.13;2.93;;;6.80;97.30;;;;;;5003064;28;20280;-89
2023/12/17 16:25:26;;;;;;;3.33;2.40;;;6.80;97.30;;;;;;4977393;28;20186;-89
2023/12/17 16:27:51;;;;;;;2.20;1.60;;;6.70;97.30;;;;;;4977042;28;20209;-88
2023/12/17 16:30:19;;;;;;;1.70;1.57;;;6.70;97.30;;;;;;4976893;28;20297;-88
2023/12/17 16:32:45;;;;;;;5.63;2.40;;;6.70;97.30;;;;;;4982919;28;20278;-88
2023/12/17 16:35:11;;;;;;;2.30;1.53;;;6.70;97.30;;;;;;4970954;28;20429;-88
2023/12/17 16:37:39;;;;;;;7.20;2.90;;;6.60;97.30;;;;;;4975163;28;20432;-88
2023/12/17 16:40:06;;;;;;;2.77;1.93;;;6.60;97.30;;;;;;4973814;28;20185;-88
2023/12/17 16:42:32;;;;;;;2.00;1.87;;;6.70;97.30;;;;;;4994732;28;20717;-89
2023/12/17 16:44:58;;;;;;;6.37;2.40;;;6.70;97.30;;;;;;4976925;28;20799;-88
2023/12/17 16:47:24;;;;;;;1.60;1.50;;;6.60;97.30;;;;;;4977100;28;20186;-89
2023/12/17 16:49:49;;;;;;;3.67;2.07;;;6.60;97.30;;;;;;4994661;28;20464;-88
2023/12/17 16:52:15;;;;;;;1.53;1.43;;;6.60;97.30;;;;;;4980113;28;20346;-88
2023/12/17 16:54:41;;;;;;;1.83;1.70;;;6.60;97.30;;;;;;4993552;28;20186;-87
2023/12/17 16:57:06;;;;;;;3.43;3.23;;;6.60;97.30;;;;;;4975911;28;20700;-87
2023/12/17 16:59:32;;;;;;;2.97;2.83;;;6.70;97.30;;;;;;4978514;28;20193;-87
2023/12/17 17:01:59;;;;;;;2.30;1.97;;;6.70;97.30;;;;;;4973072;28;20240;-88
2023/12/17 17:04:25;;;;;;;1.87;1.53;;;6.70;97.30;;;;;;4980496;28;20177;-89
2023/12/17 17:06:52;;;;;;;1.93;1.33;;;6.70;97.30;;;;;;4983264;28;20447;-89
2023/12/17 17:09:18;;;;;;;3.37;1.73;;;6.60;97.30;;;;;;4973763;28;20642;-88
2023/12/17 17:11:44;;;;;;;1.77;1.67;;;6.60;97.30;;;;;;4973573;28;20469;-88
2023/12/17 17:14:09;;;;;;;2.27;1.97;;;6.60;97.30;;;;;;4973992;28;20468;-88
2023/12/17 17:16:35;;;;;;;1.63;1.53;;;6.60;97.30;;;;;;4973053;28;20190;-88
2023/12/17 17:19:01;;;;;;;2.40;1.27;;;6.60;97.30;;;;;;4976077;28;20216;-87
2023/12/17 17:21:27;;;;;;;1.10;1.00;;;6.60;97.30;;;;;;4973475;28;20205;-89
2023/12/17 17:23:55;;;;;;;2.70;2.50;;;6.50;97.30;;;;;;4991847;28;20247;-88
2023/12/17 17:26:21;;;;;;;1.97;1.87;;;6.50;97.30;;;;;;4991324;28;20425;-87
2023/12/17 17:28:46;;;;;;;3.33;3.17;;;6.50;97.30;;;;;;4970956;28;20433;-87
2023/12/17 17:31:12;;;;;;;1.40;1.30;;;6.40;97.30;;;;;;4977516;28;20222;-87
2023/12/17 17:33:38;;;;;;;1.00;0.90;;;6.40;97.30;;;;;;4976613;28;20581;-88
2023/12/17 17:36:09;;;;;;;1.57;1.30;;;6.40;97.30;;;;;;4970189;28;20209;-88
2023/12/17 17:38:44;;;;;;;1.63;1.57;;;6.40;97.30;;;;;;4973775;28;20677;-89
2023/12/17 17:41:13;;;;;;;3.87;1.73;;;6.40;97.30;;;;;;4994053;28;20455;-88
2023/12/17 17:43:38;;;;;;;2.20;1.73;;;6.30;97.30;;;;;;4992433;28;20429;-88
2023/12/17 17:46:04;;;;;;;2.30;2.10;;;6.30;97.30;;;;;;4963531;28;20484;-89
2023/12/17 17:48:29;;;;;;;2.40;2.20;;;6.30;97.30;;;;;;4979514;28;20887;-88
2023/12/17 17:51:01;;;;;;;2.70;2.50;;;6.30;97.30;;;;;;4972896;28;20209;-88
2023/12/17 17:53:26;;;;;;;4.27;2.00;;;6.30;97.30;;;;;;4976239;28;20174;-88